createdAt,value
2022-09-16T00:01:39.586Z,9.38
2022-09-16T00:06:44.373Z,10.90
2022-09-16T00:11:47.848Z,9.25
2022-09-16T00:16:52.639Z,9.27
2022-09-16T00:21:58.561Z,9.10
2022-09-16T00:27:01.968Z,14.30
2022-09-16T00:32:05.394Z,10.77
2022-09-16T00:37:10.031Z,6.68
2022-09-16T00:42:21.242Z,9.40
2022-09-16T00:47:30.337Z,6.53
2022-09-16T00:52:37.176Z,8.35
2022-09-16T00:57:42.544Z,10.70
2022-09-16T01:02:48.460Z,8.27
2022-09-16T01:07:55.614Z,7.18
2022-09-16T01:13:01.817Z,8.23
2022-09-16T01:18:18.506Z,7.40
2022-09-16T01:23:54.904Z,7.05
2022-09-16T01:29:39.731Z,6.10
2022-09-16T01:34:53.026Z,10.35
2022-09-16T01:40:06.396Z,7.53
2022-09-16T01:45:17.674Z,5.65
2022-09-16T01:50:25.488Z,8.07
2022-09-16T01:55:34.590Z,7.38
2022-09-16T02:00:40.627Z,6.57
2022-09-16T02:05:49.961Z,7.88
2022-09-16T02:10:59.633Z,7.43
2022-09-16T02:16:09.507Z,6.97
2022-09-16T02:21:17.998Z,7.75
2022-09-16T02:26:28.788Z,8.35
2022-09-16T02:31:37.277Z,9.52
2022-09-16T02:36:47.429Z,6.70
2022-09-16T02:41:50.898Z,7.85
2022-09-16T02:47:01.607Z,7.32
2022-09-16T02:52:15.817Z,7.05
2022-09-16T02:57:19.038Z,8.43
2022-09-16T03:02:23.270Z,7.60
2022-09-16T03:07:28.464Z,9.40
2022-09-16T03:12:54.755Z,11.38
2022-09-16T03:18:23.861Z,7.13
2022-09-16T03:23:45.019Z,6.95
2022-09-16T03:28:57.350Z,6.22
2022-09-16T03:34:08.117Z,8.38
2022-09-16T03:39:14.297Z,6.45
2022-09-16T03:44:17.398Z,8.05
2022-09-16T03:49:21.533Z,7.18
2022-09-16T03:54:26.487Z,5.80
2022-09-16T03:59:29.777Z,8.80
2022-09-16T04:04:32.900Z,13.85
2022-09-16T04:09:38.289Z,9.88
2022-09-16T04:14:41.422Z,12.40
2022-09-16T04:19:44.960Z,8.57
2022-09-16T04:24:49.572Z,9.88
2022-09-16T04:29:52.770Z,10.52
2022-09-16T04:34:56.407Z,9.75
2022-09-16T04:40:04.509Z,9.43
2022-09-16T04:45:09.280Z,8.50
2022-09-16T04:50:12.465Z,9.80
2022-09-16T04:55:17.090Z,12.43
2022-09-16T05:00:22.672Z,7.05
2022-09-16T05:05:25.883Z,11.63
2022-09-16T05:10:30.442Z,9.18
2022-09-16T05:15:35.354Z,11.15
2022-09-16T05:20:38.944Z,9.68
2022-09-16T05:25:43.457Z,10.40
2022-09-16T05:30:46.671Z,11.45
2022-09-16T05:35:49.865Z,12.63
2022-09-16T05:40:54.508Z,8.38
2022-09-16T05:45:58.480Z,8.85
2022-09-16T05:51:03.245Z,11.40
2022-09-16T05:56:09.459Z,8.65
2022-09-16T06:01:14.862Z,8.27
2022-09-16T06:06:23.047Z,10.60
2022-09-16T06:11:29.341Z,7.55
2022-09-16T06:16:33.190Z,12.13
2022-09-16T06:21:36.332Z,10.15
2022-09-16T06:26:42.373Z,12.20
2022-09-16T06:31:45.532Z,10.95
2022-09-16T06:36:48.891Z,8.55
2022-09-16T06:41:53.439Z,11.57
2022-09-16T06:46:56.742Z,11.90
2022-09-16T06:51:59.797Z,9.18
2022-09-16T06:57:06.601Z,14.57
2022-09-16T07:02:13.625Z,6.15
2022-09-16T07:07:17.135Z,7.50
2022-09-16T07:12:21.628Z,10.25
2022-09-16T07:17:27.292Z,6.05
2022-09-16T07:22:32.663Z,6.90
2022-09-16T07:27:37.203Z,4.45
2022-09-16T07:32:40.342Z,5.88
2022-09-16T07:37:43.557Z,6.50
2022-09-16T07:42:48.064Z,7.05
2022-09-16T07:47:51.468Z,3.67
2022-09-16T07:52:55.897Z,5.88
2022-09-16T07:58:00.442Z,7.57
2022-09-16T08:03:03.661Z,10.40
2022-09-16T08:08:06.849Z,4.18
2022-09-16T08:13:11.633Z,5.25
2022-09-16T08:18:14.905Z,6.07
2022-09-16T08:23:18.349Z,7.80
2022-09-16T08:28:22.769Z,5.93
2022-09-16T08:33:26.038Z,4.35
2022-09-16T08:38:29.917Z,7.55
2022-09-16T08:43:38.743Z,6.38
2022-09-16T08:48:51.003Z,5.07
2022-09-16T08:54:00.074Z,3.95
2022-09-16T08:59:10.379Z,3.95
2022-09-16T09:04:14.279Z,4.28
2022-09-16T09:09:34.933Z,3.28
2022-09-16T09:14:50.861Z,2.40
2022-09-16T09:20:08.838Z,3.08
2022-09-16T09:25:24.228Z,6.13
2022-09-16T09:30:30.186Z,3.58
2022-09-16T09:35:50.080Z,8.93
2022-09-16T09:40:56.747Z,2.40
2022-09-16T09:46:05.641Z,4.28
2022-09-16T09:51:18.217Z,11.75
2022-09-16T09:56:26.603Z,4.18
2022-09-16T10:01:31.112Z,2.38
2022-09-16T10:06:36.357Z,3.35
2022-09-16T10:11:48.829Z,2.28
2022-09-16T10:16:54.798Z,2.63
2022-09-16T10:22:11.926Z,7.57
2022-09-16T10:27:23.591Z,3.83
2022-09-16T10:32:30.933Z,2.92
2022-09-16T10:37:34.129Z,3.10
2022-09-16T10:42:37.592Z,2.83
2022-09-16T10:47:42.486Z,2.60
2022-09-16T10:52:48.153Z,7.32
2022-09-16T10:57:51.848Z,3.33
2022-09-16T11:03:20.135Z,2.65
2022-09-16T11:08:39.008Z,2.42
2022-09-16T11:13:51.103Z,2.72
2022-09-16T11:19:07.767Z,2.10
2022-09-16T11:24:41.281Z,4.30
2022-09-16T11:29:55.225Z,3.28
2022-09-16T11:35:18.548Z,4.95
2022-09-16T11:40:32.763Z,4.55
2022-09-16T11:45:48.172Z,3.45
2022-09-16T11:51:00.909Z,2.88
2022-09-16T11:56:09.849Z,4.22
2022-09-16T12:01:24.872Z,2.83
2022-09-16T12:06:40.314Z,2.60
2022-09-16T12:11:48.019Z,2.95
2022-09-16T12:16:57.044Z,2.30
2022-09-16T12:22:07.562Z,6.60
2022-09-16T12:27:16.519Z,2.25
2022-09-16T12:32:23.922Z,4.82
2022-09-16T12:37:35.808Z,2.42
2022-09-16T12:43:05.570Z,2.90
2022-09-16T12:48:41.604Z,3.80
2022-09-16T12:54:02.521Z,4.78
2022-09-16T12:59:29.436Z,6.07
2022-09-16T13:04:38.879Z,3.08
2022-09-16T13:09:46.147Z,3.03
2022-09-16T13:14:52.550Z,5.20
2022-09-16T13:19:59.107Z,2.60
2022-09-16T13:25:15.847Z,3.50
2022-09-16T13:30:33.266Z,4.05
2022-09-16T13:35:41.567Z,4.28
2022-09-16T13:40:59.044Z,3.13
2022-09-16T13:46:08.177Z,1.65
2022-09-16T13:51:18.466Z,2.13
2022-09-16T13:56:49.567Z,2.25
2022-09-16T14:02:05.404Z,2.10
2022-09-16T14:07:23.985Z,3.45
2022-09-16T14:12:39.137Z,3.08
2022-09-16T14:17:51.159Z,2.10
2022-09-16T14:23:06.869Z,3.50
2022-09-16T14:28:18.415Z,2.35
2022-09-16T14:33:28.694Z,4.50
2022-09-16T14:38:46.590Z,3.72
2022-09-16T14:43:52.860Z,4.22
2022-09-16T14:48:55.968Z,4.35
2022-09-16T14:54:11.738Z,2.72
2022-09-16T14:59:17.909Z,4.90
2022-09-16T15:04:28.270Z,2.17
2022-09-16T15:09:40.732Z,2.22
2022-09-16T15:14:45.369Z,3.40
2022-09-16T15:19:54.397Z,2.85
2022-09-16T15:24:59.578Z,4.40
2022-09-16T15:30:05.895Z,2.78
2022-09-16T15:35:20.800Z,5.05
2022-09-16T15:40:32.761Z,2.78
2022-09-16T15:45:39.097Z,1.00
2022-09-16T15:50:46.576Z,2.90
2022-09-16T15:55:59.824Z,3.30
2022-09-16T16:01:07.930Z,5.53
2022-09-16T16:06:11.022Z,1.70
2022-09-16T16:11:16.283Z,1.90
2022-09-16T16:16:24.848Z,5.05
2022-09-16T16:21:28.006Z,2.40
2022-09-16T16:26:31.115Z,3.63
2022-09-16T16:31:37.197Z,3.72
2022-09-16T16:36:40.466Z,1.63
2022-09-16T16:41:43.667Z,1.77
2022-09-16T16:46:48.409Z,3.50
2022-09-16T16:51:52.911Z,1.20
2022-09-16T16:56:56.814Z,4.50
2022-09-16T17:02:01.478Z,1.45
2022-09-16T17:12:28.146Z,4.05
2022-09-16T17:17:32.805Z,2.60
2022-09-16T17:22:36.058Z,1.45
2022-09-16T17:27:41.284Z,2.08
2022-09-16T17:32:45.843Z,4.05
2022-09-16T17:37:49.029Z,2.45
2022-09-16T17:42:52.613Z,2.45
2022-09-16T17:47:59.076Z,2.15
2022-09-16T17:53:02.195Z,2.45
2022-09-16T17:58:05.266Z,3.65
2022-09-16T18:03:12.107Z,2.88
2022-09-16T18:08:15.294Z,3.53
2022-09-16T18:13:18.337Z,4.00
2022-09-16T18:18:26.017Z,4.10
2022-09-16T18:23:29.195Z,2.20
2022-09-16T18:28:42.095Z,4.75
2022-09-16T18:33:57.231Z,2.42
2022-09-16T18:39:00.856Z,3.03
2022-09-16T18:44:08.940Z,3.25
2022-09-16T18:49:15.010Z,2.40
2022-09-16T18:54:20.734Z,4.95
2022-09-16T18:59:26.916Z,3.72
2022-09-16T19:04:34.041Z,1.83
2022-09-16T19:09:39.818Z,5.93
2022-09-16T19:14:43.297Z,2.97
2022-09-16T19:19:50.806Z,2.40
2022-09-16T19:24:54.297Z,5.15
2022-09-16T19:29:57.380Z,5.15
2022-09-16T19:35:01.912Z,2.55
2022-09-16T19:40:05.433Z,2.08
2022-09-16T19:45:09.928Z,0.98
2022-09-16T19:50:14.779Z,1.00
2022-09-16T19:55:18.608Z,2.65
2022-09-16T20:00:32.813Z,0.50
2022-09-16T20:05:48.899Z,1.35
2022-09-16T20:10:52.047Z,0.75
2022-09-16T20:15:58.032Z,1.38
2022-09-16T20:21:07.735Z,3.90
2022-09-16T20:26:12.294Z,3.72
2022-09-16T20:31:15.648Z,1.05
2022-09-16T20:36:21.976Z,1.00
2022-09-16T20:41:30.192Z,3.97
2022-09-16T20:46:36.016Z,0.82
2022-09-16T20:51:41.031Z,1.08
2022-09-16T20:56:46.449Z,1.67
2022-09-16T21:01:50.661Z,4.47
2022-09-16T21:06:55.194Z,1.30
2022-09-16T21:11:58.236Z,0.65
2022-09-16T21:17:01.549Z,0.98
2022-09-16T21:22:07.027Z,2.40
2022-09-16T21:27:10.589Z,2.78
2022-09-16T21:32:13.700Z,2.15
2022-09-16T21:37:21.907Z,1.75
2022-09-16T21:42:25.031Z,2.15
2022-09-16T21:47:28.169Z,1.10
2022-09-16T21:52:32.590Z,0.50
2022-09-16T21:57:35.740Z,1.13
2022-09-16T22:02:38.957Z,0.43
2022-09-16T22:07:43.591Z,4.00
2022-09-16T22:12:46.740Z,3.50
2022-09-16T22:17:51.846Z,0.40
2022-09-16T22:22:56.584Z,2.92
2022-09-16T22:27:59.811Z,1.40
2022-09-16T22:33:03.232Z,0.30
2022-09-16T22:38:07.800Z,0.40
2022-09-16T22:43:10.953Z,0.47
2022-09-16T22:48:14.173Z,1.67
2022-09-16T22:53:18.606Z,0.70
2022-09-16T22:58:21.689Z,1.30
2022-09-16T23:03:24.868Z,0.68
2022-09-16T23:08:30.871Z,0.75
2022-09-16T23:13:35.260Z,0.80
2022-09-16T23:18:38.700Z,4.88
2022-09-16T23:23:45.891Z,4.50
2022-09-16T23:28:53.215Z,1.60
2022-09-16T23:33:57.122Z,0.82
2022-09-16T23:39:02.324Z,1.00
2022-09-16T23:44:05.676Z,0.45
2022-09-16T23:49:09.322Z,1.58
2022-09-16T23:54:13.991Z,1.75
2022-09-16T23:59:17.204Z,1.58
